Time,TemperatureF,DewpointF,PressureIn,WindDirection,WindDirectionDegrees,WindSpeedMPH,WindSpeedGustMPH,Humidity,HourlyPrecipIn,Conditions,Clouds,dailyrainin,SoftwareType,DateUTC
2013-10-04 01:54:00,58.0,57.0,-100.00,NE,55,1.0,4.0,95,-99.99,,,-99.99,,2013-10-04 06:54:00,
2013-10-04 02:26:00,58.0,57.0,-100.00,NE,55,1.0,4.0,95,-99.99,,,-99.99,,2013-10-04 07:26:00,
2013-10-04 02:36:00,58.0,57.0,-100.00,NE,55,1.0,4.0,95,-99.99,,,-99.99,,2013-10-04 07:36:00,
2013-10-04 02:46:00,58.0,57.0,-100.00,NE,55,1.0,4.0,95,-99.99,,,-99.99,,2013-10-04 07:46:00,
2013-10-04 02:54:00,58.0,56.0,-100.00,NE,55,0.0,2.0,95,-99.99,,,-99.99,,2013-10-04 07:54:00,
2013-10-04 03:26:00,58.0,56.0,-100.00,NE,55,0.0,2.0,95,-99.99,,,-99.99,,2013-10-04 08:26:00,
2013-10-04 03:36:00,58.0,56.0,-100.00,NE,55,0.0,2.0,95,-99.99,,,-99.99,,2013-10-04 08:36:00,
2013-10-04 03:46:00,58.0,56.0,-100.00,NE,55,0.0,2.0,95,-99.99,,,-99.99,,2013-10-04 08:46:00,
2013-10-04 03:54:00,58.0,57.0,-100.00,NE,40,0.0,2.0,96,-99.99,,,-99.99,,2013-10-04 08:54:00,
2013-10-04 04:26:00,58.0,57.0,-100.00,NE,40,0.0,2.0,96,-99.99,,,-99.99,,2013-10-04 09:26:00,
2013-10-04 04:38:00,58.0,57.0,-100.00,NE,40,0.0,2.0,96,-99.99,,,-99.99,,2013-10-04 09:38:00,
2013-10-04 04:48:00,58.0,57.0,-100.00,NE,40,0.0,2.0,96,-99.99,,,-99.99,,2013-10-04 09:48:00,
2013-10-04 08:54:00,55.0,55.0,-100.00,ENE,60,3.0,7.0,98,-99.99,,,-99.99,,2013-10-04 13:54:00,
2013-10-04 09:28:00,55.0,55.0,-100.00,ENE,60,3.0,7.0,98,-99.99,,,-99.99,,2013-10-04 14:28:00,
2013-10-04 09:38:00,55.0,55.0,-100.00,ENE,60,3.0,7.0,98,-99.99,,,-99.99,,2013-10-04 14:38:00,
2013-10-04 09:48:00,55.0,55.0,-100.00,ENE,60,3.0,7.0,98,-99.99,,,-99.99,,2013-10-04 14:48:00,
2013-10-04 12:55:00,57.0,56.0,-100.00,ENE,75,1.0,10.0,96,-99.99,,,-99.99,,2013-10-04 17:55:00,
2013-10-04 13:30:00,57.0,56.0,-100.00,ENE,75,1.0,10.0,96,-99.99,,,-99.99,,2013-10-04 18:30:00,
2013-10-04 13:39:00,57.0,56.0,-100.00,ENE,75,1.0,10.0,96,-99.99,,,-99.99,,2013-10-04 18:39:00,
2013-10-04 13:49:00,57.0,56.0,-100.00,ENE,75,1.0,10.0,96,-99.99,,,-99.99,,2013-10-04 18:49:00,
2013-10-04 15:54:00,57.0,57.0,-100.00,NE,45,1.0,7.0,98,-99.99,,,-99.99,,2013-10-04 20:54:00,
2013-10-04 16:22:00,57.0,57.0,-100.00,NE,45,1.0,7.0,98,-99.99,,,-99.99,,2013-10-04 21:22:00,
2013-10-04 16:33:00,57.0,57.0,-100.00,NE,45,1.0,7.0,98,-99.99,,,-99.99,,2013-10-04 21:33:00,
2013-10-04 16:43:00,57.0,57.0,-100.00,NE,45,1.0,7.0,98,-99.99,,,-99.99,,2013-10-04 21:43:00,
2013-10-04 17:23:00,57.0,57.0,-100.00,ENE,75,5.0,11.0,98,-99.99,,,-99.99,,2013-10-04 22:23:00,
2013-10-04 17:33:00,57.0,57.0,-100.00,ENE,75,5.0,11.0,98,-99.99,,,-99.99,,2013-10-04 22:33:00,
2013-10-04 17:43:00,57.0,57.0,-100.00,ENE,75,5.0,11.0,98,-99.99,,,-99.99,,2013-10-04 22:43:00,
2013-10-04 17:52:00,57.0,57.0,-100.00,ENE,75,5.0,11.0,98,-99.99,,,-99.99,,2013-10-04 22:52:00,
2013-10-04 23:24:00,56.0,56.0,-100.00,ENE,65,4.0,14.0,98,-99.99,,,-99.99,,2013-10-05 04:24:00,
2013-10-04 23:33:00,56.0,56.0,-100.00,ENE,65,4.0,14.0,98,-99.99,,,-99.99,,2013-10-05 04:33:00,
2013-10-04 23:43:00,56.0,56.0,-100.00,ENE,65,4.0,14.0,98,-99.99,,,-99.99,,2013-10-05 04:43:00,
2013-10-04 23:53:00,56.0,56.0,-100.00,ENE,65,4.0,14.0,98,-99.99,,,-99.99,,2013-10-05 04:53:00,